createdAt,value
2019-04-04T00:01:07.831Z,6.20
2019-04-04T00:04:13.114Z,6.12
2019-04-04T00:07:18.490Z,6.06
2019-04-04T00:10:23.794Z,6.09
2019-04-04T00:13:29.184Z,6.04
2019-04-04T00:16:36.006Z,5.89
2019-04-04T00:19:41.267Z,5.89
2019-04-04T00:22:49.555Z,5.96
2019-04-04T00:25:54.900Z,5.94
2019-04-04T00:29:01.518Z,5.89
2019-04-04T00:32:07.131Z,5.95
2019-04-04T00:35:14.425Z,5.89
2019-04-04T00:38:22.468Z,5.92
2019-04-04T00:41:27.691Z,5.81
2019-04-04T00:44:33.099Z,5.74
2019-04-04T00:47:38.404Z,5.65
2019-04-04T00:50:43.826Z,5.52
2019-04-04T00:53:51.415Z,5.27
2019-04-04T00:56:56.654Z,5.08
2019-04-04T01:00:02.032Z,4.98
2019-04-04T01:03:07.299Z,4.89
2019-04-04T01:06:12.591Z,4.76
2019-04-04T01:09:17.827Z,4.67
2019-04-04T01:12:23.149Z,4.58
2019-04-04T01:15:30.809Z,4.49
2019-04-04T01:18:37.452Z,4.41
2019-04-04T01:21:42.330Z,4.29
2019-04-04T01:24:47.669Z,4.17
2019-04-04T01:27:52.907Z,4.15
2019-04-04T01:30:58.206Z,4.15
2019-04-04T01:34:03.468Z,4.09
2019-04-04T01:37:08.803Z,4.14
2019-04-04T01:40:18.809Z,4.10
2019-04-04T01:43:24.169Z,4.09
2019-04-04T01:46:29.557Z,4.10
2019-04-04T01:49:34.896Z,4.04
2019-04-04T01:52:40.148Z,4.00
2019-04-04T01:55:45.429Z,4.04
2019-04-04T01:58:50.752Z,4.05
2019-04-04T02:01:56.140Z,3.97
2019-04-04T02:05:01.534Z,3.86
2019-04-04T02:08:06.871Z,3.86
2019-04-04T02:11:12.139Z,3.97
2019-04-04T02:14:19.476Z,4.31
2019-04-04T02:17:24.380Z,4.21
2019-04-04T02:20:29.791Z,4.28
2019-04-04T02:23:36.065Z,4.36
2019-04-04T02:26:41.405Z,4.45
2019-04-04T02:29:48.349Z,4.45
2019-04-04T02:32:53.975Z,4.52
2019-04-04T02:35:59.436Z,4.56
2019-04-04T02:39:08.464Z,4.54
2019-04-04T02:42:13.719Z,4.47
2019-04-04T02:45:19.019Z,4.56
2019-04-04T02:48:24.810Z,4.59
2019-04-04T02:51:31.246Z,4.54
2019-04-04T02:54:36.673Z,4.53
2019-04-04T02:57:44.053Z,4.56
2019-04-04T03:00:49.440Z,4.60
2019-04-04T03:03:54.870Z,4.56
2019-04-04T03:07:01.916Z,4.48
2019-04-04T03:10:07.622Z,4.50
2019-04-04T03:13:12.894Z,4.59
2019-04-04T03:16:20.976Z,4.58
2019-04-04T03:19:28.167Z,4.67
2019-04-04T03:22:33.467Z,4.66
2019-04-04T03:25:38.803Z,4.65
2019-04-04T03:28:44.093Z,4.48
2019-04-04T03:31:49.430Z,4.36
2019-04-04T03:34:54.867Z,4.38
2019-04-04T03:38:00.228Z,4.30
2019-04-04T03:41:08.158Z,4.22
2019-04-04T03:44:15.069Z,4.23
2019-04-04T03:47:20.436Z,4.19
2019-04-04T03:50:29.219Z,4.16
2019-04-04T03:53:35.266Z,4.20
2019-04-04T03:56:39.823Z,4.17
2019-04-04T03:59:45.175Z,4.19
2019-04-04T04:02:50.986Z,4.14
2019-04-04T04:05:56.501Z,4.31
2019-04-04T04:09:01.771Z,4.24
2019-04-04T04:12:11.204Z,4.26
2019-04-04T04:15:15.383Z,4.21
2019-04-04T04:18:21.752Z,4.19
2019-04-04T04:21:27.214Z,4.20
2019-04-04T04:24:32.619Z,4.13
2019-04-04T04:27:37.926Z,4.02
2019-04-04T04:30:43.279Z,3.95
2019-04-04T04:33:49.971Z,4.05
2019-04-04T04:36:55.392Z,4.02
2019-04-04T04:40:00.810Z,4.10
2019-04-04T04:43:06.092Z,4.18
2019-04-04T04:46:16.953Z,4.13
2019-04-04T04:49:23.330Z,4.09
2019-04-04T04:52:27.898Z,4.20
2019-04-04T04:55:33.272Z,4.27
2019-04-04T04:58:41.866Z,4.19
2019-04-04T05:01:45.635Z,4.12
2019-04-04T05:04:51.070Z,4.13
2019-04-04T05:07:56.368Z,4.08
2019-04-04T05:11:01.752Z,4.22
2019-04-04T05:14:07.045Z,4.23
2019-04-04T05:17:12.328Z,4.34
2019-04-04T05:20:20.858Z,4.37
2019-04-04T05:23:26.151Z,4.38
2019-04-04T05:26:32.272Z,4.44
2019-04-04T05:29:38.502Z,4.50
2019-04-04T05:32:43.759Z,4.47
2019-04-04T05:35:49.058Z,4.52
2019-04-04T05:38:54.357Z,4.58
2019-04-04T05:42:00.391Z,4.61
2019-04-04T05:45:07.680Z,4.63
2019-04-04T05:48:13.087Z,4.66
2019-04-04T05:51:18.441Z,4.65
2019-04-04T05:54:26.348Z,4.64
2019-04-04T05:57:32.369Z,4.69
2019-04-04T06:00:40.352Z,4.83
2019-04-04T06:03:47.788Z,4.91
2019-04-04T06:06:55.436Z,4.87
2019-04-04T06:09:59.688Z,4.86
2019-04-04T06:13:05.009Z,4.84
2019-04-04T06:16:10.262Z,4.84
2019-04-04T06:19:15.522Z,4.84
2019-04-04T06:22:21.125Z,4.89
2019-04-04T06:25:27.143Z,4.90
2019-04-04T06:28:32.572Z,4.98
2019-04-04T06:31:37.966Z,5.10
2019-04-04T06:34:44.276Z,5.20
2019-04-04T06:37:51.445Z,5.34
2019-04-04T06:40:58.866Z,5.47
2019-04-04T06:44:04.379Z,5.61
2019-04-04T06:47:09.677Z,5.63
2019-04-04T06:50:16.319Z,5.65
2019-04-04T06:53:22.283Z,5.65
2019-04-04T06:56:31.755Z,5.85
2019-04-04T06:59:35.585Z,5.96
2019-04-04T07:02:41.084Z,6.13
2019-04-04T07:05:46.396Z,6.41
2019-04-04T07:08:51.679Z,6.51
2019-04-04T07:11:57.002Z,6.56
2019-04-04T07:15:02.319Z,6.81
2019-04-04T07:18:10.144Z,6.70
2019-04-04T07:21:16.113Z,6.67
2019-04-04T07:24:21.392Z,6.95
2019-04-04T07:27:26.726Z,6.93
2019-04-04T07:30:31.993Z,6.90
2019-04-04T07:33:37.407Z,7.00
2019-04-04T07:36:42.716Z,6.99
2019-04-04T07:39:50.050Z,6.89
2019-04-04T07:42:56.023Z,6.71
2019-04-04T07:46:15.272Z,6.74
2019-04-04T07:49:08.503Z,6.81
2019-04-04T07:52:13.882Z,6.90
2019-04-04T07:55:19.213Z,7.12
2019-04-04T07:58:24.524Z,7.27
2019-04-04T08:01:29.923Z,7.26
2019-04-04T08:04:35.152Z,7.29
2019-04-04T08:07:41.763Z,7.37
2019-04-04T08:10:47.042Z,7.31
2019-04-04T08:13:54.798Z,7.34
2019-04-04T08:17:00.223Z,7.28
2019-04-04T08:20:06.208Z,7.49
2019-04-04T08:23:11.719Z,7.60
2019-04-04T08:26:17.102Z,7.68
2019-04-04T08:29:22.437Z,7.67
2019-04-04T08:32:27.782Z,7.50
2019-04-04T08:35:33.051Z,7.64
2019-04-04T08:38:38.373Z,7.81
2019-04-04T08:41:43.641Z,7.97
2019-04-04T08:44:48.948Z,7.92
2019-04-04T08:47:54.268Z,7.93
2019-04-04T08:50:59.541Z,8.06
2019-04-04T08:54:05.011Z,8.20
2019-04-04T08:57:10.466Z,7.92
2019-04-04T09:00:15.937Z,7.94
2019-04-04T09:03:21.276Z,7.97
2019-04-04T09:06:28.147Z,8.08
2019-04-04T09:09:34.815Z,7.87
2019-04-04T09:12:40.472Z,7.94
2019-04-04T09:15:45.839Z,8.01
2019-04-04T09:18:51.206Z,8.00
2019-04-04T09:21:56.570Z,8.08
2019-04-04T09:25:01.969Z,8.14
2019-04-04T09:28:07.272Z,8.11
2019-04-04T09:31:12.558Z,8.23
2019-04-04T09:34:17.914Z,8.21
2019-04-04T09:37:23.211Z,8.13
2019-04-04T09:40:28.519Z,7.84
2019-04-04T09:43:33.897Z,7.84
2019-04-04T09:46:39.147Z,7.92
2019-04-04T09:49:44.427Z,7.96
2019-04-04T09:52:49.707Z,7.87
2019-04-04T09:55:55.915Z,8.02
2019-04-04T09:59:01.194Z,8.21
2019-04-04T10:02:06.526Z,8.23
2019-04-04T10:05:12.027Z,8.16
2019-04-04T10:08:17.327Z,8.41
2019-04-04T10:11:22.665Z,8.73
2019-04-04T10:14:27.983Z,8.91
2019-04-04T10:17:35.667Z,8.68
2019-04-04T10:20:41.081Z,9.05
2019-04-04T10:23:46.574Z,8.88
2019-04-04T10:26:51.868Z,9.03
2019-04-04T10:29:57.216Z,9.32
2019-04-04T10:33:02.563Z,8.98
2019-04-04T10:36:07.977Z,8.97
2019-04-04T10:39:14.196Z,8.91
2019-04-04T10:42:19.559Z,8.87
2019-04-04T10:45:24.846Z,8.83
2019-04-04T10:48:31.154Z,8.72
2019-04-04T10:51:36.446Z,8.95
2019-04-04T10:54:41.912Z,9.41
2019-04-04T10:57:47.271Z,9.79
2019-04-04T11:00:53.531Z,10.19
2019-04-04T11:03:58.763Z,9.98
2019-04-04T11:07:04.113Z,9.63
2019-04-04T11:10:31.611Z,9.69
2019-04-04T11:13:44.617Z,10.01
2019-04-04T11:16:49.985Z,9.26
2019-04-04T11:19:55.261Z,9.46
2019-04-04T11:23:00.647Z,9.29
2019-04-04T11:26:06.130Z,9.17
2019-04-04T11:29:11.422Z,8.77
2019-04-04T11:32:16.696Z,8.88
2019-04-04T11:35:22.030Z,8.68
2019-04-04T11:38:27.357Z,8.48
2019-04-04T11:41:32.661Z,8.32
2019-04-04T11:44:37.932Z,8.33
2019-04-04T11:47:44.593Z,8.33
2019-04-04T11:50:50.046Z,8.00
2019-04-04T11:53:56.418Z,8.08
2019-04-04T11:57:01.780Z,8.24
2019-04-04T12:00:07.746Z,8.13
2019-04-04T12:03:13.041Z,8.16
2019-04-04T12:06:18.342Z,8.23
2019-04-04T12:09:23.595Z,8.08
2019-04-04T12:12:28.875Z,7.82
2019-04-04T12:15:34.235Z,7.69
2019-04-04T12:18:39.546Z,7.86
2019-04-04T12:21:44.901Z,8.00
2019-04-04T12:24:50.161Z,7.84
2019-04-04T12:27:55.502Z,7.71
2019-04-04T12:31:00.815Z,7.97
2019-04-04T12:34:06.084Z,8.01
2019-04-04T12:37:11.441Z,8.15
2019-04-04T12:40:20.977Z,8.26
2019-04-04T12:43:23.786Z,8.20
2019-04-04T12:46:29.061Z,8.24
2019-04-04T12:49:34.446Z,7.93
2019-04-04T12:52:39.862Z,8.24
2019-04-04T12:55:45.101Z,7.79
2019-04-04T12:58:52.787Z,8.00
2019-04-04T13:01:58.131Z,7.89
2019-04-04T13:05:03.525Z,7.89
2019-04-04T13:08:08.865Z,7.89
2019-04-04T13:11:14.172Z,7.90
2019-04-04T13:14:19.546Z,7.87
2019-04-04T13:17:24.904Z,8.14
2019-04-04T13:20:30.230Z,8.04
2019-04-04T13:23:36.466Z,7.96
2019-04-04T13:26:41.767Z,8.01
2019-04-04T13:29:47.066Z,8.07
2019-04-04T13:32:52.406Z,8.01
2019-04-04T13:35:57.624Z,7.87
2019-04-04T13:39:02.942Z,8.11
2019-04-04T13:42:08.526Z,8.06
2019-04-04T13:45:14.809Z,8.14
2019-04-04T13:48:20.061Z,7.97
2019-04-04T13:51:25.632Z,7.92
2019-04-04T13:54:31.145Z,7.89
2019-04-04T13:57:39.408Z,8.06
2019-04-04T14:00:45.010Z,7.82
2019-04-04T14:03:50.313Z,7.86
2019-04-04T14:06:55.596Z,7.90
2019-04-04T14:10:00.960Z,8.04
2019-04-04T14:13:06.265Z,7.72
2019-04-04T14:16:11.585Z,7.84
2019-04-04T14:19:16.914Z,7.73
2019-04-04T14:22:22.172Z,7.71
2019-04-04T14:25:29.324Z,7.71
2019-04-04T14:28:34.622Z,7.67
2019-04-04T14:31:40.037Z,7.70
2019-04-04T14:34:45.336Z,7.57
2019-04-04T14:37:50.669Z,7.46
2019-04-04T14:40:55.953Z,7.40
2019-04-04T14:44:02.606Z,7.44
2019-04-04T14:47:07.881Z,7.42
2019-04-04T14:50:15.850Z,7.46
2019-04-04T14:53:21.126Z,7.42
2019-04-04T14:56:26.420Z,7.35
2019-04-04T14:59:33.676Z,7.42
2019-04-04T15:02:38.915Z,7.52
2019-04-04T15:05:44.240Z,7.53
2019-04-04T15:08:49.590Z,7.58
2019-04-04T15:11:54.890Z,7.52
2019-04-04T15:15:00.201Z,7.48
2019-04-04T15:18:05.492Z,7.38
2019-04-04T15:21:11.001Z,7.20
2019-04-04T15:24:16.257Z,7.24
2019-04-04T15:27:21.484Z,7.25
2019-04-04T15:30:26.771Z,7.25
2019-04-04T15:33:32.053Z,7.20
2019-04-04T15:36:37.337Z,7.18
2019-04-04T15:39:44.236Z,7.18
2019-04-04T15:42:51.023Z,7.12
2019-04-04T15:45:56.408Z,7.12
2019-04-04T15:49:01.632Z,7.08
2019-04-04T15:52:06.983Z,7.01
2019-04-04T15:55:12.310Z,7.00
2019-04-04T15:58:17.666Z,6.98
2019-04-04T16:01:22.936Z,6.90
2019-04-04T16:04:28.318Z,6.91
2019-04-04T16:07:33.626Z,6.89
2019-04-04T16:10:40.049Z,6.95
2019-04-04T16:13:45.422Z,6.91
2019-04-04T16:16:51.024Z,6.88
2019-04-04T16:19:56.447Z,6.82
2019-04-04T16:23:01.907Z,6.85
2019-04-04T16:26:07.296Z,6.89
2019-04-04T16:29:12.701Z,6.83
2019-04-04T16:32:18.031Z,6.75
2019-04-04T16:35:25.809Z,6.73
2019-04-04T16:38:30.385Z,6.70
2019-04-04T16:41:35.706Z,6.71
2019-04-04T16:44:40.990Z,6.73
2019-04-04T16:47:46.322Z,6.65
2019-04-04T16:50:51.800Z,6.65
2019-04-04T16:53:57.176Z,6.71
2019-04-04T16:57:02.424Z,6.69
2019-04-04T17:00:08.450Z,6.69
2019-04-04T17:03:13.821Z,6.71
2019-04-04T17:06:19.133Z,6.71
2019-04-04T17:09:24.485Z,6.67
2019-04-04T17:12:29.899Z,6.60
2019-04-04T17:15:35.170Z,6.57
2019-04-04T17:18:40.450Z,6.53
2019-04-04T17:21:45.726Z,6.49
2019-04-04T17:24:50.959Z,6.42
2019-04-04T17:27:56.306Z,6.41
2019-04-04T17:31:02.212Z,6.36
2019-04-04T17:34:07.641Z,6.31
2019-04-04T17:37:12.978Z,6.35
2019-04-04T17:40:19.529Z,6.29
2019-04-04T17:43:25.293Z,6.24
2019-04-04T17:46:30.822Z,6.22
2019-04-04T17:49:36.531Z,6.16
2019-04-04T17:52:42.352Z,6.07
2019-04-04T17:55:48.591Z,6.01
2019-04-04T17:58:53.869Z,6.04
2019-04-04T18:01:59.231Z,6.00
2019-04-04T18:05:04.932Z,5.95
2019-04-04T18:08:11.320Z,5.90
2019-04-04T18:11:16.681Z,5.85
2019-04-04T18:14:21.993Z,5.86
2019-04-04T18:17:27.308Z,5.86
2019-04-04T18:20:32.560Z,5.78
2019-04-04T18:23:38.210Z,5.82
2019-04-04T18:26:43.504Z,5.82
2019-04-04T18:29:48.840Z,5.83
2019-04-04T18:32:54.564Z,5.81
2019-04-04T18:36:00.040Z,5.78
2019-04-04T18:39:07.808Z,5.82
2019-04-04T18:42:13.324Z,5.76
2019-04-04T18:45:18.689Z,5.78
2019-04-04T18:48:24.008Z,5.83
2019-04-04T18:51:29.275Z,5.74
2019-04-04T18:54:34.631Z,5.72
2019-04-04T18:57:42.872Z,5.80
2019-04-04T19:00:48.166Z,5.78
2019-04-04T19:03:53.488Z,5.78
2019-04-04T19:06:58.798Z,5.77
2019-04-04T19:10:04.355Z,5.80
2019-04-04T19:13:09.712Z,5.82
2019-04-04T19:16:15.009Z,5.77
2019-04-04T19:19:20.873Z,5.84
2019-04-04T19:22:26.236Z,5.82
2019-04-04T19:25:31.565Z,5.81
2019-04-04T19:28:36.938Z,5.76
2019-04-04T19:31:43.927Z,5.75
2019-04-04T19:34:49.197Z,5.76
2019-04-04T19:38:00.218Z,5.75
2019-04-04T19:41:04.780Z,5.83
2019-04-04T19:44:10.460Z,5.77
2019-04-04T19:47:15.771Z,5.78
2019-04-04T19:50:21.056Z,5.86
2019-04-04T19:53:26.344Z,5.80
2019-04-04T19:56:31.661Z,5.84
2019-04-04T19:59:36.985Z,5.82
2019-04-04T20:02:43.991Z,5.82
2019-04-04T20:05:49.379Z,5.79
2019-04-04T20:08:54.724Z,5.82
2019-04-04T20:12:01.385Z,5.77
2019-04-04T20:15:07.353Z,5.82
2019-04-04T20:18:12.629Z,5.82
2019-04-04T20:21:17.923Z,5.85
2019-04-04T20:24:23.184Z,5.81
2019-04-04T20:27:28.530Z,5.79
2019-04-04T20:30:38.351Z,5.84
2019-04-04T20:33:43.706Z,5.91
2019-04-04T20:36:49.229Z,5.85
2019-04-04T20:39:54.619Z,5.83
2019-04-04T20:42:59.892Z,5.79
2019-04-04T20:46:05.221Z,5.81
2019-04-04T20:49:10.470Z,5.82
2019-04-04T20:52:15.883Z,5.79
2019-04-04T20:55:21.193Z,5.79
2019-04-04T20:58:26.444Z,5.81
2019-04-04T21:01:31.814Z,5.89
2019-04-04T21:04:38.275Z,5.83
2019-04-04T21:07:43.977Z,5.82
2019-04-04T21:10:52.493Z,5.85
2019-04-04T21:13:57.822Z,5.85
2019-04-04T21:17:03.196Z,5.85
2019-04-04T21:20:08.539Z,5.85
2019-04-04T21:23:13.923Z,5.81
2019-04-04T21:26:19.187Z,5.85
2019-04-04T21:29:24.498Z,5.76
2019-04-04T21:32:29.748Z,5.77
2019-04-04T21:35:35.020Z,5.75
2019-04-04T21:38:41.303Z,5.76
2019-04-04T21:41:46.597Z,5.74
2019-04-04T21:44:51.918Z,5.74
2019-04-04T21:47:57.289Z,5.71
2019-04-04T21:51:02.579Z,5.80
2019-04-04T21:54:07.898Z,5.82
2019-04-04T21:57:13.192Z,5.80
2019-04-04T22:00:19.169Z,5.82
2019-04-04T22:03:27.094Z,5.84
2019-04-04T22:06:32.387Z,5.95
2019-04-04T22:09:39.464Z,5.91
2019-04-04T22:12:44.759Z,5.90
2019-04-04T22:15:50.024Z,5.98
2019-04-04T22:18:55.295Z,5.93
2019-04-04T22:22:02.885Z,5.89
2019-04-04T22:25:08.272Z,5.95
2019-04-04T22:28:15.088Z,5.91
2019-04-04T22:31:20.393Z,5.86
2019-04-04T22:34:25.713Z,5.92
2019-04-04T22:37:31.047Z,5.84
2019-04-04T22:40:36.345Z,5.86
2019-04-04T22:43:41.647Z,5.82
2019-04-04T22:46:46.907Z,5.81
2019-04-04T22:49:52.176Z,5.81
2019-04-04T22:52:57.492Z,5.80
2019-04-04T22:56:02.921Z,5.90
2019-04-04T22:59:08.287Z,5.80
2019-04-04T23:02:13.579Z,5.79
2019-04-04T23:05:18.868Z,5.78
2019-04-04T23:08:24.123Z,5.82
2019-04-04T23:11:29.486Z,5.78
2019-04-04T23:14:42.191Z,5.80
2019-04-04T23:17:45.587Z,5.76
2019-04-04T23:20:51.072Z,5.81
2019-04-04T23:23:56.396Z,5.81
2019-04-04T23:27:03.914Z,5.87
2019-04-04T23:30:10.988Z,5.82
2019-04-04T23:33:17.878Z,5.75
2019-04-04T23:36:34.378Z,5.77
2019-04-04T23:39:30.175Z,5.77
2019-04-04T23:42:35.472Z,5.79
2019-04-04T23:45:40.796Z,5.78
2019-04-04T23:48:46.076Z,5.76
2019-04-04T23:51:51.422Z,5.80
2019-04-04T23:54:56.747Z,5.89
2019-04-04T23:58:02.106Z,5.89
